Time;durP1;ratioP1;P1;durP2;ratioP2;P2;SDS_P1;SDS_P2;PMS_P1;PMS_P2;Temp;Humidity;BMP_temperature;BMP_pressure;BME280_temperature;BME280_humidity;BME280_pressure;Samples;Min_cycle;Max_cycle;Signal;HPM_P1;HPM_P2
2022/03/24 00:00:39;;;;;;;83.30;41.80;;;;;;;9.11;30.29;99941.41;233496;1217;140929;-58
2022/03/24 00:05:55;;;;;;;81.40;39.10;;;;;;;8.92;30.61;99940.44;233383;1217;139454;-59
2022/03/24 00:11:00;;;;;;;84.70;41.40;;;;;;;8.81;30.90;99939.30;233483;1217;139647;-57
2022/03/24 00:16:04;;;;;;;76.20;40.10;;;;;;;8.65;31.41;99933.56;233219;1217;139536;-59
2022/03/24 00:21:08;;;;;;;84.80;41.80;;;;;;;8.54;31.67;99925.88;233362;1217;138702;-57
2022/03/24 00:26:11;;;;;;;85.70;44.00;;;;;;;8.39;32.20;99927.69;233275;1217;138962;-58
2022/03/24 00:31:14;;;;;;;85.80;43.70;;;;;;;8.20;32.39;99928.38;233296;1217;139049;-60
2022/03/24 00:36:17;;;;;;;78.80;41.20;;;;;;;8.05;32.92;99930.36;233252;1217;139006;-57
2022/03/24 00:41:22;;;;;;;82.90;41.30;;;;;;;7.91;33.14;99931.94;233348;1217;138870;-60
2022/03/24 00:46:25;;;;;;;77.00;40.50;;;;;;;7.77;33.57;99935.64;233453;1217;139185;-59
2022/03/24 00:51:28;;;;;;;75.70;40.40;;;;;;;7.58;33.88;99930.64;233307;1217;139000;-58
2022/03/24 00:56:31;;;;;;;78.00;39.60;;;;;;;7.46;34.49;99928.59;233176;1220;138853;-57
2022/03/24 01:01:34;;;;;;;81.60;39.70;;;;;;;7.35;34.63;99930.58;233251;1218;139022;-58
2022/03/24 01:06:37;;;;;;;79.00;39.90;;;;;;;7.27;35.08;99934.20;233292;1218;139381;-58
2022/03/24 01:11:41;;;;;;;79.50;38.40;;;;;;;7.23;35.48;99932.58;233223;1218;139538;-58
2022/03/24 01:16:44;;;;;;;72.30;36.80;;;;;;;7.22;35.87;99923.62;233331;1218;139652;-58
2022/03/24 01:21:49;;;;;;;77.30;39.60;;;;;;;7.20;35.99;99916.98;233348;1217;139627;-59
2022/03/24 01:26:52;;;;;;;73.50;37.40;;;;;;;7.18;36.00;99912.65;233198;1217;139770;-58
2022/03/24 01:31:55;;;;;;;72.60;37.30;;;;;;;7.18;36.28;99913.70;233118;1217;138958;-55
2022/03/24 01:36:59;;;;;;;78.00;36.60;;;;;;;7.14;36.31;99908.35;233277;1217;138640;-58
2022/03/24 01:42:02;;;;;;;69.70;35.70;;;;;;;7.07;36.35;99908.40;233395;1217;139397;-58
2022/03/24 01:47:08;;;;;;;67.70;35.30;;;;;;;7.04;36.36;99912.23;233811;1217;139124;-58
2022/03/24 01:52:14;;;;;;;73.80;34.10;;;;;;;6.96;36.60;99913.54;233241;1217;139553;-58
2022/03/24 01:57:18;;;;;;;70.50;34.20;;;;;;;6.91;36.57;99918.30;233283;1217;139024;-58
2022/03/24 02:02:21;;;;;;;64.00;32.90;;;;;;;6.84;36.73;99920.45;233194;1217;139668;-59
2022/03/24 02:07:24;;;;;;;71.40;33.40;;;;;;;6.80;37.26;99924.11;233374;1217;139608;-58
2022/03/24 02:12:28;;;;;;;74.20;33.80;;;;;;;6.74;37.21;99919.36;233196;1217;139190;-61
2022/03/24 02:17:32;;;;;;;54.40;25.40;;;;;;;6.73;37.16;99921.52;233224;1216;139653;-58
2022/03/24 02:22:35;;;;;;;57.20;27.80;;;;;;;6.93;36.57;99923.18;232712;1217;139178;-59
2022/03/24 02:27:39;;;;;;;52.10;26.90;;;;;;;7.14;36.40;99921.24;233241;1220;139100;-59
2022/03/24 02:32:42;;;;;;;57.70;28.40;;;;;;;7.33;36.33;99929.95;233320;1217;139173;-59
2022/03/24 02:37:45;;;;;;;55.40;27.20;;;;;;;7.42;36.15;99937.57;233366;1217;139081;-60
2022/03/24 02:42:48;;;;;;;52.90;26.60;;;;;;;7.38;36.13;99935.23;233097;1217;138490;-60
2022/03/24 02:47:51;;;;;;;57.00;27.20;;;;;;;7.33;36.59;99938.77;233207;1217;140088;-60
2022/03/24 02:52:55;;;;;;;56.20;28.10;;;;;;;7.22;36.59;99943.91;233387;1217;139169;-59
2022/03/24 02:57:58;;;;;;;55.30;28.40;;;;;;;7.09;37.08;99948.05;233316;1217;138797;-58
2022/03/24 03:03:00;;;;;;;55.10;28.00;;;;;;;6.97;37.51;99953.73;233157;1217;139887;-59
2022/03/24 03:08:04;;;;;;;58.40;27.70;;;;;;;6.84;37.52;99958.19;233252;1217;139668;-58
2022/03/24 03:13:08;;;;;;;61.10;30.50;;;;;;;6.74;37.58;99962.08;233158;1217;139210;-59
2022/03/24 03:18:12;;;;;;;59.00;29.50;;;;;;;6.72;37.77;99965.83;233355;1217;141592;-57
2022/03/24 03:23:15;;;;;;;76.10;32.20;;;;;;;6.64;38.04;99969.77;233260;1217;139314;-59
2022/03/24 03:28:18;;;;;;;68.10;31.90;;;;;;;6.53;38.07;99973.13;233129;1219;139111;-58
2022/03/24 03:33:21;;;;;;;63.40;31.10;;;;;;;6.39;38.55;99976.35;233155;1217;139601;-59
2022/03/24 03:38:26;;;;;;;65.00;31.90;;;;;;;6.28;38.95;99977.71;233175;1218;139577;-58
2022/03/24 03:43:29;;;;;;;62.80;31.90;;;;;;;6.20;38.67;99980.62;233183;1217;139010;-58
2022/03/24 03:48:33;;;;;;;66.80;30.70;;;;;;;6.09;39.45;99981.80;233279;1217;138760;-58
2022/03/24 03:53:36;;;;;;;62.90;31.40;;;;;;;6.02;39.57;99984.64;233217;1217;139026;-59
2022/03/24 03:58:40;;;;;;;68.60;30.80;;;;;;;6.00;39.77;99984.88;233294;1217;139199;-58
2022/03/24 04:03:43;;;;;;;58.60;31.20;;;;;;;5.95;39.64;99993.47;233310;1217;138869;-57
2022/03/24 04:08:46;;;;;;;66.70;31.30;;;;;;;5.92;39.83;99999.16;233234;1217;139159;-58
2022/03/24 04:13:49;;;;;;;67.80;32.00;;;;;;;5.91;39.84;100006.25;233189;1217;139003;-59
2022/03/24 04:18:52;;;;;;;206.30;129.70;;;;;;;5.86;40.24;100014.64;233216;1217;139292;-60
2022/03/24 04:23:55;;;;;;;66.00;33.90;;;;;;;5.86;40.30;100015.54;233237;1217;139744;-60
2022/03/24 04:28:58;;;;;;;61.30;30.00;;;;;;;5.84;40.49;100024.72;233470;1217;139375;-58
2022/03/24 04:34:01;;;;;;;55.30;28.30;;;;;;;5.75;40.24;100027.45;233306;1217;138671;-60
2022/03/24 04:39:04;;;;;;;136.30;82.50;;;;;;;5.68;40.51;100032.90;233472;1216;139042;-58
2022/03/24 04:44:07;;;;;;;62.00;30.40;;;;;;;5.70;40.80;100034.80;233346;1217;142178;-60
2022/03/24 04:49:10;;;;;;;58.70;28.20;;;;;;;5.63;40.67;100040.77;233355;1218;140984;-60
2022/03/24 04:54:14;;;;;;;57.10;29.00;;;;;;;5.58;40.70;100045.66;233254;1217;139023;-61
2022/03/24 04:59:17;;;;;;;60.80;28.90;;;;;;;5.58;41.04;100045.13;233348;1217;141337;-62
2022/03/24 05:04:21;;;;;;;60.70;28.80;;;;;;;5.60;41.24;100045.96;233327;1217;139001;-62
2022/03/24 05:09:24;;;;;;;63.20;28.00;;;;;;;5.65;41.32;100053.60;233199;1217;138974;-61
2022/03/24 05:14:27;;;;;;;167.90;92.00;;;;;;;5.70;41.15;100056.08;233226;1217;139470;-61
2022/03/24 05:19:31;;;;;;;74.90;37.60;;;;;;;5.87;41.97;100057.05;233271;1217;138672;-60
2022/03/24 05:24:34;;;;;;;59.50;30.70;;;;;;;6.03;41.36;100059.67;233159;1218;138900;-60
2022/03/24 05:29:37;;;;;;;56.50;28.30;;;;;;;6.13;41.10;100059.03;233235;1217;138763;-61
2022/03/24 05:34:40;;;;;;;52.80;27.90;;;;;;;6.22;41.01;100060.56;233351;1217;138838;-60
2022/03/24 05:39:43;;;;;;;55.40;29.60;;;;;;;6.30;40.79;100066.14;233157;1217;139469;-60
2022/03/24 05:44:46;;;;;;;51.90;27.90;;;;;;;6.43;40.73;100065.60;233153;1218;139827;-61
2022/03/24 05:49:49;;;;;;;48.60;27.20;;;;;;;6.59;40.44;100072.72;233261;1218;139105;-60
2022/03/24 05:55:28;;;;;;;51.60;28.30;;;;;;;6.77;40.24;100076.23;233142;1219;139089;-60
2022/03/24 06:00:32;;;;;;;55.90;28.80;;;;;;;6.93;40.53;100080.33;233204;1217;139224;-61
2022/03/24 06:05:40;;;;;;;50.90;28.10;;;;;;;7.10;40.28;100076.83;233290;1217;139551;-61
2022/03/24 06:10:44;;;;;;;51.40;29.10;;;;;;;7.25;39.90;100079.70;233291;1219;141387;-61
2022/03/24 06:15:50;;;;;;;51.30;29.00;;;;;;;7.39;39.98;100078.91;233160;1218;139370;-61
2022/03/24 06:20:53;;;;;;;53.00;29.40;;;;;;;7.53;39.42;100078.08;233150;1217;139401;-60
2022/03/24 06:25:56;;;;;;;58.50;28.70;;;;;;;7.68;39.37;100085.72;233167;1217;138928;-61
2022/03/24 06:31:05;;;;;;;57.90;29.80;;;;;;;7.83;39.51;100087.50;233272;1217;139328;-62
2022/03/24 06:36:09;;;;;;;48.00;28.50;;;;;;;7.99;39.07;100092.27;233198;1219;138708;-62
2022/03/24 06:41:14;;;;;;;54.60;28.70;;;;;;;8.14;38.99;100092.29;233422;1217;138428;-62
2022/03/24 06:46:17;;;;;;;50.50;29.00;;;;;;;8.25;38.92;100096.66;233243;1217;138779;-60
2022/03/24 06:51:20;;;;;;;53.30;28.70;;;;;;;8.35;38.77;100094.90;233307;1217;138831;-62
2022/03/24 06:56:24;;;;;;;52.20;28.60;;;;;;;8.48;38.89;100096.73;233235;1218;139831;-60
2022/03/24 07:01:27;;;;;;;56.90;28.60;;;;;;;8.61;38.97;100094.50;233379;1217;139790;-61
2022/03/24 07:06:30;;;;;;;50.80;29.30;;;;;;;8.74;38.97;100096.33;233298;1217;138708;-61
2022/03/24 07:11:33;;;;;;;51.40;28.00;;;;;;;8.88;38.93;100096.66;233260;1217;139110;-61
2022/03/24 07:16:37;;;;;;;54.00;29.00;;;;;;;9.04;38.81;100096.43;233371;1217;139889;-61
2022/03/24 07:21:40;;;;;;;48.00;27.50;;;;;;;9.18;38.70;100098.35;233333;1217;138966;-61
2022/03/24 07:26:43;;;;;;;53.10;28.30;;;;;;;9.34;38.52;100104.27;233315;1217;139458;-61
2022/03/24 07:31:46;;;;;;;48.30;27.60;;;;;;;9.47;38.27;100103.23;233263;1217;139080;-61
2022/03/24 07:36:49;;;;;;;56.60;27.90;;;;;;;9.61;38.06;100103.02;233227;1217;139341;-61
2022/03/24 07:41:51;;;;;;;48.00;26.90;;;;;;;9.75;37.84;100105.60;233235;1217;139010;-61
2022/03/24 07:46:56;;;;;;;48.00;27.20;;;;;;;9.89;37.69;100106.79;233421;1217;140015;-61
2022/03/24 07:52:01;;;;;;;45.80;26.40;;;;;;;10.02;37.55;100106.77;233195;1217;140224;-61
2022/03/24 07:57:05;;;;;;;42.50;26.90;;;;;;;10.16;37.30;100104.23;233231;1217;151530;-61
2022/03/24 08:02:12;;;;;;;43.40;24.90;;;;;;;10.28;37.12;100100.01;233337;1217;140287;-61
2022/03/24 08:07:15;;;;;;;32.70;20.40;;;;;;;10.42;36.75;100102.95;233337;1218;140351;-61
2022/03/24 08:12:18;;;;;;;34.60;20.90;;;;;;;10.55;36.28;100106.81;233252;1219;142836;-60
2022/03/24 08:17:21;;;;;;;36.80;20.20;;;;;;;10.68;35.89;100106.94;233349;1218;139169;-61
2022/03/24 08:22:24;;;;;;;32.90;20.60;;;;;;;10.80;35.69;100110.11;233673;1217;139440;-61
2022/03/24 08:27:27;;;;;;;28.60;17.00;;;;;;;10.91;35.05;100110.83;233237;1217;140484;-61
2022/03/24 08:32:30;;;;;;;30.70;16.60;;;;;;;11.06;35.07;100117.95;233188;1217;139513;-61
2022/03/24 08:37:33;;;;;;;28.10;16.70;;;;;;;11.20;34.97;100118.95;233226;1217;139100;-61
2022/03/24 08:42:40;;;;;;;32.60;15.90;;;;;;;11.32;34.16;100114.98;233244;1217;139256;-60
2022/03/24 08:47:43;;;;;;;31.10;17.90;;;;;;;11.42;34.27;100115.92;233216;1217;139259;-60
2022/03/24 08:52:46;;;;;;;33.80;18.50;;;;;;;11.53;33.90;100110.95;233313;1217;139459;-61
2022/03/24 08:57:49;;;;;;;32.60;18.50;;;;;;;11.63;33.97;100113.45;233214;1217;139414;-61
2022/03/24 09:02:53;;;;;;;32.10;16.90;;;;;;;11.72;33.61;100114.63;233227;1217;138809;-61
2022/03/24 09:07:57;;;;;;;30.60;18.60;;;;;;;11.84;33.90;100116.15;233279;1217;139426;-61
2022/03/24 09:13:00;;;;;;;34.70;18.50;;;;;;;11.97;33.69;100113.92;233197;1219;140487;-61
2022/03/24 09:18:04;;;;;;;195.60;118.60;;;;;;;12.09;33.60;100115.26;233103;1217;140972;-61
2022/03/24 09:23:08;;;;;;;31.80;20.20;;;;;;;12.25;33.99;100109.29;233121;1218;140088;-62
2022/03/24 09:28:12;;;;;;;26.60;16.30;;;;;;;12.39;33.50;100114.41;233142;1218;139895;-62
2022/03/24 09:33:15;;;;;;;28.10;15.90;;;;;;;12.48;32.99;100111.13;233085;1219;139820;-60
2022/03/24 09:38:19;;;;;;;26.30;16.50;;;;;;;12.58;32.51;100111.31;233059;1218;140006;-61
2022/03/24 09:43:22;;;;;;;26.20;16.20;;;;;;;12.70;32.28;100107.62;232709;1218;139334;-62
2022/03/24 09:48:25;;;;;;;27.70;16.10;;;;;;;12.79;32.20;100108.04;233094;1218;140184;-62
2022/03/24 09:53:28;;;;;;;26.80;15.50;;;;;;;12.91;31.91;100106.34;233304;1217;139808;-61
2022/03/24 09:58:32;;;;;;;26.80;16.10;;;;;;;13.02;31.71;100106.26;233202;1217;139456;-62
2022/03/24 10:03:34;;;;;;;23.40;12.70;;;;;;;13.15;31.57;100103.75;233241;1217;140151;-60
2022/03/24 10:08:38;;;;;;;18.90;9.90;;;;;;;13.31;31.46;100101.09;233209;1217;142259;-61
2022/03/24 10:13:55;;;;;;;16.90;9.80;;;;;;;13.50;31.06;100097.91;233274;1217;139478;-61
2022/03/24 10:19:15;;;;;;;14.10;8.40;;;;;;;13.77;30.77;100099.91;233225;1217;139630;-60
2022/03/24 10:24:21;;;;;;;12.60;7.80;;;;;;;13.92;30.12;100100.11;233242;1217;139276;-61
2022/03/24 10:29:25;;;;;;;15.00;7.40;;;;;;;14.12;29.41;100098.91;233395;1218;139537;-61
2022/03/24 10:34:30;;;;;;;11.50;6.90;;;;;;;14.31;29.16;100096.88;233148;1217;139836;-60
2022/03/24 10:39:35;;;;;;;15.40;7.00;;;;;;;14.54;29.00;100092.84;233285;1217;139800;-60
2022/03/24 10:45:00;;;;;;;14.10;7.90;;;;;;;14.80;28.70;100088.19;233236;1217;139300;-60
2022/03/24 10:50:42;;;;;;;16.00;7.60;;;;;;;15.04;28.25;100080.39;233287;1217;139822;-60
2022/03/24 10:55:45;;;;;;;12.80;7.60;;;;;;;15.23;28.19;100070.10;233164;1218;139750;-61
2022/03/24 11:00:51;;;;;;;10.20;6.90;;;;;;;15.38;28.16;100061.20;233271;1218;139344;-60
2022/03/24 11:06:08;;;;;;;13.30;7.40;;;;;;;15.57;27.68;100067.48;233211;1217;139842;-60
2022/03/24 11:11:15;;;;;;;10.90;7.30;;;;;;;15.66;27.50;100060.99;233358;1217;139286;-59
2022/03/24 11:16:21;;;;;;;11.60;6.70;;;;;;;15.76;27.40;100047.45;233223;1217;139806;-60
2022/03/24 11:21:33;;;;;;;10.10;6.60;;;;;;;15.94;27.24;100049.14;233190;1217;139277;-58
2022/03/24 11:26:36;;;;;;;10.30;6.80;;;;;;;16.09;27.16;100040.38;233280;1217;139317;-60
2022/03/24 11:31:44;;;;;;;12.40;6.80;;;;;;;16.20;26.67;100034.45;233240;1217;139823;-60
2022/03/24 11:36:50;;;;;;;11.10;7.00;;;;;;;16.40;26.27;100029.83;233065;1218;140091;-59
2022/03/24 11:41:57;;;;;;;10.70;5.50;;;;;;;16.50;26.37;100020.11;233295;1217;139664;-60
2022/03/24 11:47:11;;;;;;;15.50;5.00;;;;;;;16.67;25.85;100020.95;233379;1219;139482;-60
2022/03/24 11:52:14;;;;;;;9.20;4.80;;;;;;;16.85;25.51;100017.20;233190;1217;139338;-60
2022/03/24 11:57:29;;;;;;;15.70;5.50;;;;;;;16.99;25.38;100015.95;233188;1219;138983;-60
2022/03/24 12:02:32;;;;;;;10.50;5.60;;;;;;;17.22;25.51;100005.45;233259;1218;139804;-60
2022/03/24 12:07:36;;;;;;;10.70;5.80;;;;;;;17.54;25.42;100006.65;233213;1217;139546;-60
2022/03/24 12:13:00;;;;;;;10.50;6.00;;;;;;;17.80;25.22;100001.83;233236;1217;139286;-60
2022/03/24 12:18:06;;;;;;;12.40;6.30;;;;;;;18.16;25.27;99992.98;233374;1217;139759;-60
2022/03/24 12:23:09;;;;;;;;;;;;;;;18.48;25.24;99993.97;233223;1217;139794;-60
2022/03/24 12:28:22;;;;;;;14.20;6.60;;;;;;;18.75;25.22;99988.13;233420;1217;125620;-61
2022/03/24 12:33:32;;;;;;;25.10;7.40;;;;;;;18.97;25.14;99994.89;233228;1217;139862;-60
2022/03/24 12:38:54;;;;;;;11.00;7.00;;;;;;;19.11;24.81;99986.81;233160;1218;140087;-58
2022/03/24 12:44:03;;;;;;;12.40;6.60;;;;;;;19.22;24.45;99980.13;233235;1219;139288;-60
2022/03/24 12:49:12;;;;;;;12.90;7.30;;;;;;;19.42;24.45;99981.02;233176;1219;140212;-60
2022/03/24 12:54:17;;;;;;;10.70;5.40;;;;;;;19.69;27.43;99976.92;233118;1219;139278;-59
2022/03/24 12:59:20;;;;;;;10.90;5.10;;;;;;;20.02;27.50;99969.27;233391;1218;139005;-59
2022/03/24 13:04:23;;;;;;;9.30;4.60;;;;;;;20.21;27.31;99965.08;233215;1217;138787;-59
2022/03/24 13:09:26;;;;;;;9.80;4.00;;;;;;;20.41;27.00;99960.08;233239;1220;139140;-60
2022/03/24 13:14:30;;;;;;;8.30;5.00;;;;;;;20.58;26.88;99948.88;233243;1219;139669;-60
2022/03/24 13:19:35;;;;;;;11.30;4.90;;;;;;;20.74;26.85;99950.44;233240;1219;139437;-60
2022/03/24 13:24:41;;;;;;;9.50;5.20;;;;;;;21.02;26.27;99947.17;233158;1218;139536;-60
2022/03/24 13:29:44;;;;;;;10.70;4.80;;;;;;;21.09;25.51;99937.59;233222;1218;140936;-60
2022/03/24 13:34:48;;;;;;;10.70;4.40;;;;;;;21.26;25.44;99936.35;233328;1218;139280;-60
2022/03/24 13:39:54;;;;;;;10.00;4.00;;;;;;;21.44;25.45;99934.64;233241;1218;139215;-62
2022/03/24 13:44:58;;;;;;;9.50;4.40;;;;;;;21.55;25.10;99926.86;233220;1218;139248;-60
2022/03/24 13:50:03;;;;;;;13.10;4.00;;;;;;;21.69;24.86;99921.67;233120;1217;139861;-62
2022/03/24 13:55:11;;;;;;;6.80;3.90;;;;;;;21.66;24.65;99919.68;233209;1218;139208;-60
2022/03/24 14:00:26;;;;;;;9.20;3.90;;;;;;;21.56;24.74;99919.86;233274;1218;138991;-59
2022/03/24 14:05:49;;;;;;;5.20;3.50;;;;;;;21.31;24.47;99917.88;233449;1217;139116;-58
2022/03/24 14:11:23;;;;;;;9.30;3.50;;;;;;;20.86;24.48;99912.42;233198;1218;138746;-60
2022/03/24 14:16:32;;;;;;;5.60;3.40;;;;;;;20.35;24.97;99909.23;233112;1219;139291;-59
2022/03/24 14:21:41;;;;;;;6.90;3.80;;;;;;;19.88;25.21;99900.00;233187;1217;139445;-59
2022/03/24 14:27:01;;;;;;;7.40;3.80;;;;;;;19.48;25.68;99902.20;233154;1217;139440;-58
2022/03/24 14:32:14;;;;;;;11.20;3.70;;;;;;;19.23;26.27;99905.02;233176;1217;140060;-59
2022/03/24 14:37:17;;;;;;;8.40;4.10;;;;;;;19.03;26.16;99898.05;233178;1217;139287;-56
2022/03/24 14:42:20;;;;;;;9.70;4.20;;;;;;;18.91;26.55;99899.39;233166;1217;139852;-58
2022/03/24 14:47:23;;;;;;;8.90;4.60;;;;;;;18.75;26.00;99891.35;233280;1217;138874;-59
2022/03/24 14:52:27;;;;;;;7.90;4.40;;;;;;;18.69;27.00;99885.23;233177;1217;140206;-58
2022/03/24 14:57:30;;;;;;;8.80;4.40;;;;;;;18.66;27.04;99884.36;233050;1217;139500;-58
2022/03/24 15:02:34;;;;;;;10.30;4.40;;;;;;;18.66;27.43;99877.48;233054;1217;139197;-58
2022/03/24 15:07:37;;;;;;;8.20;4.30;;;;;;;18.68;27.30;99873.59;233059;1220;139608;-58
2022/03/24 15:12:42;;;;;;;11.20;5.20;;;;;;;18.60;27.24;99877.82;233300;1217;140545;-60
2022/03/24 15:17:45;;;;;;;11.60;4.30;;;;;;;18.55;27.52;99880.98;233758;1218;139206;-60
2022/03/24 15:22:49;;;;;;;16.90;4.20;;;;;;;18.51;27.31;99871.05;233643;1217;139942;-60
2022/03/24 15:27:52;;;;;;;48.80;33.10;;;;;;;18.47;27.60;99870.81;233534;1217;139540;-60
2022/03/24 15:32:56;;;;;;;31.20;19.50;;;;;;;18.50;27.14;99873.44;233676;1219;139733;-59
2022/03/24 15:38:00;;;;;;;14.80;8.00;;;;;;;18.59;27.53;99868.26;233569;1217;139760;-58
2022/03/24 15:43:03;;;;;;;9.10;5.30;;;;;;;18.72;27.38;99871.67;233656;1219;139719;-59
2022/03/24 15:48:07;;;;;;;10.10;4.70;;;;;;;18.57;26.84;99870.02;233711;1217;139617;-61
2022/03/24 15:53:10;;;;;;;9.70;5.30;;;;;;;18.38;26.82;99875.90;233848;1217;140202;-59
2022/03/24 15:58:13;;;;;;;10.70;5.10;;;;;;;18.30;26.95;99877.40;233599;1217;139135;-59
2022/03/24 16:03:16;;;;;;;16.50;6.90;;;;;;;18.21;27.05;99871.13;233063;1219;139324;-59
2022/03/24 16:08:19;;;;;;;13.00;5.80;;;;;;;18.31;27.40;99874.29;233581;1219;139776;-58
2022/03/24 16:13:24;;;;;;;33.00;18.80;;;;;;;18.29;27.00;99872.44;233681;1218;140127;-58
2022/03/24 16:18:27;;;;;;;16.80;9.50;;;;;;;18.15;27.19;99867.48;233613;1219;140263;-59
2022/03/24 16:23:30;;;;;;;13.90;8.80;;;;;;;18.33;27.64;99878.27;233728;1218;140029;-58
2022/03/24 16:28:34;;;;;;;12.50;6.70;;;;;;;18.41;27.64;99880.99;233643;1217;139137;-58
2022/03/24 16:33:37;;;;;;;10.80;4.10;;;;;;;18.42;27.23;99885.61;233593;1217;139418;-59
2022/03/24 16:38:40;;;;;;;11.10;5.30;;;;;;;18.30;27.39;99879.55;233677;1217;139494;-58
2022/03/24 16:43:43;;;;;;;13.60;3.90;;;;;;;18.22;27.38;99883.80;233567;1219;140224;-59
2022/03/24 16:48:46;;;;;;;9.70;3.80;;;;;;;18.06;27.27;99891.74;233630;1217;140385;-57
2022/03/24 16:53:50;;;;;;;142.20;106.60;;;;;;;17.60;26.66;99898.48;233813;1217;139046;-60
2022/03/24 16:58:54;;;;;;;17.30;9.00;;;;;;;17.08;26.87;99902.13;233617;1218;140167;-58
2022/03/24 17:03:59;;;;;;;13.70;5.10;;;;;;;16.88;27.01;99905.24;233656;1219;139541;-59
2022/03/24 17:09:02;;;;;;;12.80;5.10;;;;;;;16.46;26.99;99906.48;233695;1218;139721;-59
2022/03/24 17:14:05;;;;;;;18.90;5.50;;;;;;;16.04;27.21;99910.40;233613;1219;143624;-58
2022/03/24 17:19:09;;;;;;;20.70;5.60;;;;;;;15.70;27.43;99909.23;233654;1219;140237;-58
2022/03/24 17:24:12;;;;;;;18.40;6.40;;;;;;;15.37;27.68;99913.75;233740;1219;139183;-59
2022/03/24 17:29:16;;;;;;;21.70;8.60;;;;;;;15.11;28.03;99924.63;233793;1219;139669;-59
2022/03/24 17:34:19;;;;;;;15.20;7.30;;;;;;;14.84;28.30;99927.48;233572;1220;139508;-58
2022/03/24 17:39:22;;;;;;;14.60;7.10;;;;;;;14.64;28.62;99924.14;233699;1217;140001;-60
2022/03/24 17:44:29;;;;;;;29.50;10.60;;;;;;;14.46;28.77;99934.02;233641;1219;139638;-58
2022/03/24 17:49:33;;;;;;;13.20;6.80;;;;;;;14.33;29.07;99930.92;233562;1219;140102;-59
2022/03/24 17:54:36;;;;;;;201.30;127.50;;;;;;;14.21;29.20;99939.17;233582;1219;139332;-58
2022/03/24 17:59:40;;;;;;;114.60;49.80;;;;;;;14.15;29.90;99941.34;233761;1218;139904;-59
2022/03/24 18:04:43;;;;;;;27.00;12.60;;;;;;;14.18;29.78;99943.96;233682;1218;140686;-58
2022/03/24 18:09:46;;;;;;;22.80;11.10;;;;;;;14.03;29.62;99951.17;233521;1218;140132;-58
2022/03/24 18:14:49;;;;;;;25.80;11.50;;;;;;;13.85;29.73;99951.36;233740;1218;139782;-56
2022/03/24 18:19:52;;;;;;;19.90;9.80;;;;;;;13.69;29.65;99959.09;233639;1217;140458;-57
2022/03/24 18:24:55;;;;;;;23.30;10.80;;;;;;;13.56;30.04;99962.55;233684;1218;139210;-59
2022/03/24 18:29:59;;;;;;;21.80;11.60;;;;;;;13.45;30.30;99964.67;233585;1217;139405;-58
2022/03/24 18:35:02;;;;;;;27.30;12.90;;;;;;;13.36;30.29;99965.18;233769;1218;139899;-58
2022/03/24 18:40:06;;;;;;;27.70;12.80;;;;;;;13.28;30.41;99967.44;233664;1217;139396;-57
2022/03/24 18:45:10;;;;;;;26.10;12.70;;;;;;;13.18;30.97;99972.06;233710;1217;139564;-58
2022/03/24 18:50:13;;;;;;;26.60;13.70;;;;;;;13.10;30.98;99977.17;233733;1217;139854;-59
2022/03/24 18:55:17;;;;;;;27.70;13.20;;;;;;;12.99;31.06;99980.44;233713;1218;139498;-57
2022/03/24 19:00:21;;;;;;;34.00;15.10;;;;;;;12.90;30.90;99980.99;233593;1219;139402;-58
2022/03/24 19:05:24;;;;;;;25.70;13.50;;;;;;;12.80;31.25;99980.81;233765;1219;142134;-58
2022/03/24 19:10:28;;;;;;;32.50;14.90;;;;;;;12.69;31.26;99982.89;233608;1217;139683;-57
2022/03/24 19:15:31;;;;;;;28.00;14.00;;;;;;;12.55;31.39;99990.75;233653;1219;139842;-58
2022/03/24 19:20:35;;;;;;;101.00;65.00;;;;;;;12.53;32.42;99996.22;233839;1218;139594;-57
2022/03/24 19:25:38;;;;;;;29.40;15.10;;;;;;;12.65;32.63;100002.00;233707;1218;140445;-59
2022/03/24 19:30:41;;;;;;;34.90;15.60;;;;;;;12.58;32.01;100002.34;233691;1217;139745;-58
2022/03/24 19:35:48;;;;;;;30.00;15.70;;;;;;;12.46;32.46;99999.09;233858;1217;139322;-62
2022/03/24 19:40:51;;;;;;;36.40;16.60;;;;;;;12.35;32.45;100002.70;233675;1219;139903;-58
2022/03/24 19:45:55;;;;;;;36.90;16.60;;;;;;;12.27;32.13;100005.11;233642;1218;140451;-60
2022/03/24 19:50:58;;;;;;;38.50;18.10;;;;;;;12.19;32.59;100006.61;233638;1219;140730;-61
2022/03/24 19:56:01;;;;;;;34.70;17.10;;;;;;;12.09;32.69;100007.65;233573;1219;139121;-61
2022/03/24 20:01:07;;;;;;;43.80;18.80;;;;;;;11.99;32.99;100012.79;233705;1218;139691;-60
2022/03/24 20:06:10;;;;;;;45.90;19.60;;;;;;;11.89;32.91;100015.30;233684;1218;140056;-60
2022/03/24 20:11:13;;;;;;;39.90;19.50;;;;;;;11.76;33.24;100012.55;233865;1217;139789;-60
2022/03/24 20:16:18;;;;;;;39.10;20.10;;;;;;;11.66;33.30;100015.36;233655;1217;140015;-59
2022/03/24 20:21:21;;;;;;;36.10;18.70;;;;;;;11.55;33.83;100016.27;233572;1219;139275;-63
2022/03/24 20:26:24;;;;;;;37.90;18.80;;;;;;;11.48;33.92;100017.72;233687;1217;140913;-62
2022/03/24 20:31:27;;;;;;;46.20;20.60;;;;;;;11.43;34.04;100019.16;233729;1218;140903;-60
2022/03/24 20:36:32;;;;;;;39.10;21.00;;;;;;;11.39;34.02;100021.68;233698;1218;139479;-59
2022/03/24 20:41:35;;;;;;;39.90;20.40;;;;;;;11.35;33.97;100022.61;233788;1217;139881;-61
2022/03/24 20:46:39;;;;;;;41.20;21.70;;;;;;;11.31;34.14;100018.54;233594;1217;139681;-60
2022/03/24 20:51:42;;;;;;;40.70;20.60;;;;;;;11.24;34.48;100023.88;233727;1218;140120;-60
2022/03/24 20:56:45;;;;;;;44.40;21.20;;;;;;;11.14;34.38;100024.55;233701;1217;139375;-59
2022/03/24 21:01:49;;;;;;;34.90;19.40;;;;;;;11.06;34.59;100028.30;233593;1218;139838;-60
2022/03/24 21:06:52;;;;;;;55.30;24.40;;;;;;;10.99;34.62;100025.45;233717;1217;139223;-60
2022/03/24 21:11:56;;;;;;;76.70;34.20;;;;;;;10.88;35.01;100029.30;233841;1217;139193;-60
2022/03/24 21:17:03;;;;;;;77.30;36.10;;;;;;;10.72;35.21;100037.36;233608;1219;139422;-62
2022/03/24 21:22:07;;;;;;;90.70;38.50;;;;;;;10.48;35.59;100038.11;233735;1219;140039;-60
2022/03/24 21:27:10;;;;;;;80.80;38.10;;;;;;;10.24;35.71;100041.29;233674;1219;139955;-62
2022/03/24 21:32:13;;;;;;;85.60;40.10;;;;;;;10.03;35.94;100043.63;233729;1218;139985;-64
2022/03/24 21:37:16;;;;;;;78.90;38.70;;;;;;;9.86;36.28;100049.88;233547;1218;139561;-63
2022/03/24 21:42:19;;;;;;;82.60;40.00;;;;;;;9.66;36.72;100058.33;233435;1219;139140;-60
2022/03/24 21:47:22;;;;;;;65.60;32.30;;;;;;;9.48;37.16;100055.86;233869;1217;140519;-59
2022/03/24 21:52:25;;;;;;;74.40;36.20;;;;;;;9.40;37.53;100052.48;233739;1217;139568;-59
2022/03/24 21:57:28;;;;;;;63.90;33.20;;;;;;;9.36;37.72;100053.16;233717;1217;139206;-58
2022/03/24 22:02:31;;;;;;;70.20;32.40;;;;;;;9.33;37.94;100051.20;233648;1218;139184;-58
2022/03/24 22:07:34;;;;;;;64.00;32.10;;;;;;;9.26;37.91;100046.14;233729;1219;139509;-58
2022/03/24 22:12:37;;;;;;;61.80;30.10;;;;;;;9.18;38.48;100043.64;233673;1218;138710;-59
2022/03/24 22:17:40;;;;;;;52.20;25.50;;;;;;;9.15;38.42;100041.82;233867;1217;140861;-59
2022/03/24 22:22:50;;;;;;;53.90;27.90;;;;;;;9.16;38.31;100043.89;233745;1217;139498;-58
2022/03/24 22:27:55;;;;;;;67.90;30.60;;;;;;;9.18;38.51;100042.04;233660;1217;139331;-58
2022/03/24 22:32:58;;;;;;;70.70;31.10;;;;;;;9.12;38.69;100041.24;233731;1219;138980;-59
2022/03/24 22:38:01;;;;;;;67.90;33.50;;;;;;;8.97;38.89;100041.45;233756;1217;139187;-61
2022/03/24 22:43:05;;;;;;;70.70;32.10;;;;;;;8.82;38.97;100044.35;233714;1219;139107;-58
2022/03/24 22:48:10;;;;;;;65.30;31.40;;;;;;;8.69;39.47;100040.58;233751;1217;139454;-59
2022/03/24 22:53:13;;;;;;;61.40;31.70;;;;;;;8.63;39.61;100040.11;233904;1218;139022;-60